X  Cerrar Datos meteorológicos de aviación METAR     LEZL Sevilla Airport
Temperatura
25°C Temperatura
16°C Punto de rocío
57% Humedad



Viento
8 KM/H
5 MPH
2 M/S
4 NUDO



310°
NO
Condiciones actuales

Despejado Despejado
Presión 1019.92 (hPa) - 30.12 (inHg)
Visibilidad 6.2 (milla) - 10 (km)
Aeropuerto
Código de aeropuerto LEZL

localidad: Sevilla Airport
Distancia: 41 (km)

Metar:
LEZL 061030Z 31004KT CAVOK 25/16 Q1020 NOSIG

Hora: 06-07-2022 12:30 CEST